LSZU weather

Buttwil Airport
Canton of Aargau, Switzerland

Public forecast

Using degrees Celsius for public forecast. Weather courtesy of forecast.io.

METAR (pilot weather report)

Closest report is Emmen Air Base, 10.3 nm (19.2 km) S. Retrieved 2019/06/15 20:20 UTC (30 minutes ago):

LSME 152020Z AUTO 26003KT 230V300 9999NDV RA FEW030 BKN047 BKN084 14/12 Q1021 RMK

TAF (pilot weather forecast)

Closest forecast is Emmen Air Base, 10.3 nm (19.2 km) S. Retrieved 2019/06/15 17:00 UTC (4 hours ago):

TAF LSME 151625Z 1517/1623 32007KT 9999 FEW040 BKN070 TEMPO 1517/1522 24018G30KT 4500 TSRA SCT040CB BKN070 PROB40 TEMPO 1518/1520 25020G40KT 2500 +TSGR SQ TEMPO 1522/1612 SHRA